createdAt,value
2019-04-14T00:01:21.643Z,19.81
2019-04-14T00:03:50.337Z,19.81
2019-04-14T00:06:18.069Z,19.82
2019-04-14T00:08:45.910Z,19.82
2019-04-14T00:11:12.861Z,19.82
2019-04-14T00:13:39.774Z,19.82
2019-04-14T00:16:07.407Z,19.83
2019-04-14T00:18:34.404Z,19.82
2019-04-14T00:21:02.263Z,19.83
2019-04-14T00:23:30.226Z,19.83
2019-04-14T00:25:58.452Z,19.83
2019-04-14T00:28:27.064Z,19.85
2019-04-14T00:30:55.299Z,19.86
2019-04-14T00:33:28.112Z,19.85
2019-04-14T00:36:00.229Z,19.85
2019-04-14T00:38:30.136Z,19.84
2019-04-14T00:40:58.889Z,19.84
2019-04-14T00:43:28.716Z,19.85
2019-04-14T00:46:00.545Z,19.84
2019-04-14T00:48:27.740Z,19.84
2019-04-14T00:50:56.013Z,19.83
2019-04-14T00:53:25.587Z,19.83
2019-04-14T00:55:53.315Z,19.83
2019-04-14T00:58:21.473Z,19.83
2019-04-14T01:00:50.094Z,19.83
2019-04-14T01:03:17.741Z,19.83
2019-04-14T01:05:45.910Z,19.82
2019-04-14T01:08:14.040Z,19.83
2019-04-14T01:10:41.318Z,19.83
2019-04-14T01:13:10.839Z,19.83
2019-04-14T01:15:49.216Z,19.83
2019-04-14T01:18:05.821Z,19.84
2019-04-14T01:20:33.867Z,19.82
2019-04-14T01:23:02.059Z,19.83
2019-04-14T01:25:30.223Z,19.81
2019-04-14T01:27:58.209Z,19.81
2019-04-14T01:30:26.190Z,19.82
2019-04-14T01:32:54.379Z,19.83
2019-04-14T01:35:21.300Z,19.82
2019-04-14T01:37:48.678Z,19.83
2019-04-14T01:40:16.395Z,19.81
2019-04-14T01:42:44.214Z,19.82
2019-04-14T01:45:12.747Z,19.82
2019-04-14T01:47:39.966Z,19.82
2019-04-14T01:50:07.014Z,19.82
2019-04-14T01:52:38.484Z,19.81
2019-04-14T01:55:07.054Z,19.81
2019-04-14T01:57:41.657Z,19.82
2019-04-14T02:00:27.023Z,19.82
2019-04-14T02:02:53.952Z,19.82
2019-04-14T02:05:21.430Z,19.80
2019-04-14T02:07:49.402Z,19.82
2019-04-14T02:10:17.261Z,19.81
2019-04-14T02:12:45.222Z,19.82
2019-04-14T02:15:13.359Z,19.81
2019-04-14T02:17:41.561Z,19.80
2019-04-14T02:20:09.927Z,19.80
2019-04-14T02:22:37.615Z,19.81
2019-04-14T02:25:05.579Z,19.80
2019-04-14T02:27:33.864Z,19.81
2019-04-14T02:30:03.512Z,19.80
2019-04-14T02:32:57.470Z,19.80
2019-04-14T02:35:32.678Z,19.80
2019-04-14T02:37:55.936Z,19.80
2019-04-14T02:40:28.607Z,19.80
2019-04-14T02:42:46.741Z,19.80
2019-04-14T02:45:32.210Z,19.79
2019-04-14T02:50:12.187Z,19.79
2019-04-14T02:53:01.200Z,19.79
2019-04-14T02:55:08.573Z,19.79
2019-04-14T02:57:41.672Z,19.78
2019-04-14T03:02:40.832Z,19.79
2019-04-14T03:05:04.117Z,19.78
2019-04-14T03:07:40.194Z,19.79
2019-04-14T03:10:01.127Z,19.79
2019-04-14T03:12:32.635Z,19.78
2019-04-14T03:15:01.564Z,19.78
2019-04-14T03:17:47.380Z,19.77
2019-04-14T03:20:20.141Z,19.77
2019-04-14T03:22:43.877Z,19.78
2019-04-14T03:25:16.686Z,19.78
2019-04-14T03:27:55.077Z,19.77
2019-04-14T03:30:53.772Z,19.77
2019-04-14T03:35:58.053Z,19.77
2019-04-14T03:37:56.596Z,19.77
2019-04-14T03:40:19.788Z,19.78
2019-04-14T03:47:56.254Z,19.78
2019-04-14T03:50:16.547Z,19.77
2019-04-14T03:55:01.135Z,19.77
2019-04-14T03:57:14.865Z,19.76
2019-04-14T03:59:41.890Z,19.76
2019-04-14T04:02:09.669Z,19.76
2019-04-14T04:04:37.940Z,19.77
2019-04-14T04:07:06.046Z,19.76
2019-04-14T04:09:38.855Z,19.76
2019-04-14T04:12:05.919Z,19.77
2019-04-14T04:14:33.444Z,19.76
2019-04-14T04:17:02.236Z,19.77
2019-04-14T04:19:42.782Z,19.77
2019-04-14T04:22:28.213Z,19.76
2019-04-14T04:25:03.031Z,19.76
2019-04-14T04:27:37.752Z,19.76
2019-04-14T04:30:10.114Z,19.75
2019-04-14T04:32:55.799Z,19.76
2019-04-14T04:35:30.702Z,19.76
2019-04-14T04:38:05.219Z,19.76
2019-04-14T04:40:33.241Z,19.76
2019-04-14T04:43:01.249Z,19.75
2019-04-14T04:45:28.259Z,19.75
2019-04-14T04:47:55.617Z,19.76
2019-04-14T04:50:23.800Z,19.74
2019-04-14T04:52:51.762Z,19.75
2019-04-14T04:55:19.760Z,19.75
2019-04-14T04:57:46.755Z,19.75
2019-04-14T05:00:13.747Z,19.74
2019-04-14T05:02:41.701Z,19.75
2019-04-14T05:05:09.824Z,19.76
2019-04-14T05:07:36.924Z,19.74
2019-04-14T05:10:11.345Z,19.75
2019-04-14T05:12:41.196Z,19.75
2019-04-14T05:15:09.904Z,19.74
2019-04-14T05:17:41.531Z,19.74
2019-04-14T05:20:09.497Z,19.75
2019-04-14T05:22:37.547Z,19.74
2019-04-14T05:25:05.662Z,19.75
2019-04-14T05:27:34.064Z,19.74
2019-04-14T05:30:02.564Z,19.73
2019-04-14T05:32:30.529Z,19.73
2019-04-14T05:34:58.608Z,19.73
2019-04-14T05:37:26.790Z,19.73
2019-04-14T05:39:54.839Z,19.73
2019-04-14T05:42:25.165Z,19.73
2019-04-14T05:44:51.443Z,19.74
2019-04-14T05:47:19.644Z,19.74
2019-04-14T05:49:50.098Z,19.73
2019-04-14T05:52:16.324Z,19.74
2019-04-14T05:54:43.309Z,19.74
2019-04-14T05:57:11.226Z,19.73
2019-04-14T05:59:38.230Z,19.73
2019-04-14T06:02:05.207Z,19.73
2019-04-14T06:04:33.106Z,19.74
2019-04-14T06:07:00.228Z,19.73
2019-04-14T06:09:27.250Z,19.74
2019-04-14T06:11:54.189Z,19.73
2019-04-14T06:14:21.160Z,19.73
2019-04-14T06:16:48.189Z,19.74
2019-04-14T06:19:15.181Z,19.73
2019-04-14T06:21:42.112Z,19.72
2019-04-14T06:24:09.061Z,19.73
2019-04-14T06:26:36.043Z,19.73
2019-04-14T06:29:02.991Z,19.73
2019-04-14T06:31:31.529Z,19.73
2019-04-14T06:34:03.207Z,19.73
2019-04-14T06:36:34.629Z,19.73
2019-04-14T06:39:12.073Z,19.72
2019-04-14T06:41:38.983Z,19.73
2019-04-14T06:44:05.914Z,19.72
2019-04-14T06:46:32.894Z,19.73
2019-04-14T06:48:59.811Z,19.72
2019-04-14T06:51:26.729Z,19.72
2019-04-14T06:53:53.669Z,19.72
2019-04-14T06:56:20.592Z,19.72
2019-04-14T06:58:47.530Z,19.72
2019-04-14T07:01:14.437Z,19.74
2019-04-14T07:03:41.389Z,19.72
2019-04-14T07:06:08.295Z,19.72
2019-04-14T07:08:35.306Z,19.73
2019-04-14T07:11:02.280Z,19.72
2019-04-14T07:13:29.186Z,19.72
2019-04-14T07:15:56.153Z,19.72
2019-04-14T07:18:23.086Z,19.71
2019-04-14T07:20:50.036Z,19.72
2019-04-14T07:23:16.961Z,19.73
2019-04-14T07:25:43.897Z,19.72
2019-04-14T07:28:10.791Z,19.73
2019-04-14T07:30:42.300Z,19.72
2019-04-14T07:33:22.892Z,19.72
2019-04-14T07:35:57.396Z,19.72
2019-04-14T07:38:34.950Z,19.73
2019-04-14T07:41:20.257Z,19.73
2019-04-14T07:44:05.283Z,19.73
2019-04-14T07:46:45.983Z,19.72
2019-04-14T07:49:17.316Z,19.73
2019-04-14T07:51:55.073Z,19.73
2019-04-14T07:54:23.670Z,19.74
2019-04-14T07:56:52.234Z,19.73
2019-04-14T07:59:20.806Z,19.74
2019-04-14T08:01:55.479Z,19.74
2019-04-14T08:04:24.068Z,19.73
2019-04-14T08:06:52.709Z,19.73
2019-04-14T08:09:19.595Z,18.99
2019-04-14T08:11:46.583Z,19.73
2019-04-14T08:14:13.490Z,19.73
2019-04-14T08:16:40.411Z,19.73
2019-04-14T08:19:07.342Z,19.73
2019-04-14T08:21:34.254Z,19.72
2019-04-14T08:24:01.192Z,19.73
2019-04-14T08:26:28.098Z,19.74
2019-04-14T08:28:55.040Z,19.72
2019-04-14T08:31:22.025Z,19.72
2019-04-14T08:33:48.928Z,19.72
2019-04-14T08:36:15.873Z,19.72
2019-04-14T08:38:42.816Z,19.72
2019-04-14T08:41:09.755Z,19.72
2019-04-14T08:43:41.052Z,19.72
2019-04-14T08:46:09.628Z,19.71
2019-04-14T08:48:43.970Z,19.70
2019-04-14T08:51:29.759Z,19.71
2019-04-14T08:54:15.032Z,19.71
2019-04-14T08:56:52.478Z,19.72
2019-04-14T08:59:21.065Z,19.71
2019-04-14T09:01:52.456Z,19.71
2019-04-14T09:04:21.044Z,19.71
2019-04-14T09:06:49.590Z,19.71
2019-04-14T09:09:20.825Z,19.71
2019-04-14T09:11:49.419Z,19.71
2019-04-14T09:14:16.338Z,19.71
2019-04-14T09:16:43.377Z,19.71
2019-04-14T09:19:10.315Z,19.71
2019-04-14T09:21:37.287Z,19.69
2019-04-14T09:24:04.225Z,18.98
2019-04-14T09:26:31.174Z,19.71
2019-04-14T09:28:58.067Z,19.71
2019-04-14T09:31:25.014Z,19.70
2019-04-14T09:33:51.986Z,19.71
2019-04-14T09:36:18.924Z,19.71
2019-04-14T09:38:45.858Z,19.70
2019-04-14T09:41:12.793Z,19.70
2019-04-14T09:43:39.743Z,19.70
2019-04-14T09:46:06.658Z,19.69
2019-04-14T09:48:33.601Z,19.69
2019-04-14T09:51:05.019Z,19.69
2019-04-14T09:53:29.139Z,19.69
2019-04-14T09:55:56.057Z,19.70
2019-04-14T09:58:22.991Z,19.68
2019-04-14T10:00:49.995Z,19.70
2019-04-14T10:03:16.942Z,19.69
2019-04-14T10:05:43.907Z,19.68
2019-04-14T10:08:10.842Z,19.71
2019-04-14T10:10:37.826Z,19.65
2019-04-14T10:13:04.821Z,19.68
2019-04-14T10:15:31.787Z,19.69
2019-04-14T10:17:58.742Z,19.66
2019-04-14T10:20:25.657Z,19.63
2019-04-14T10:22:52.560Z,19.72
2019-04-14T10:25:19.461Z,19.78
2019-04-14T10:27:46.394Z,19.83
2019-04-14T10:30:13.316Z,19.86
2019-04-14T10:32:40.213Z,19.86
2019-04-14T10:35:07.157Z,19.88
2019-04-14T10:37:34.051Z,19.86
2019-04-14T10:40:00.951Z,19.86
2019-04-14T10:42:27.870Z,19.86
2019-04-14T10:44:54.781Z,19.89
2019-04-14T10:47:21.692Z,19.90
2019-04-14T10:49:48.591Z,19.87
2019-04-14T10:52:15.504Z,19.85
2019-04-14T10:54:42.453Z,19.81
2019-04-14T10:57:09.328Z,19.86
2019-04-14T10:59:36.246Z,19.90
2019-04-14T11:02:03.225Z,19.97
2019-04-14T11:04:30.126Z,19.97
2019-04-14T11:06:58.681Z,19.98
2019-04-14T11:09:25.630Z,19.95
2019-04-14T11:12:11.736Z,19.95
2019-04-14T11:14:38.654Z,19.98
2019-04-14T11:17:05.546Z,19.97
2019-04-14T11:19:32.460Z,19.99
2019-04-14T11:21:59.373Z,20.00
2019-04-14T11:24:26.294Z,20.01
2019-04-14T11:26:53.215Z,20.01
2019-04-14T11:29:20.116Z,20.02
2019-04-14T11:31:54.557Z,20.04
2019-04-14T11:34:23.095Z,20.05
2019-04-14T11:37:08.058Z,20.07
2019-04-14T11:39:34.976Z,20.08
2019-04-14T11:42:01.883Z,20.09
2019-04-14T11:44:28.800Z,20.11
2019-04-14T11:46:55.714Z,20.13
2019-04-14T11:49:22.638Z,20.13
2019-04-14T11:51:55.506Z,20.14
2019-04-14T11:54:18.113Z,20.13
2019-04-14T11:56:45.041Z,20.14
2019-04-14T11:59:12.050Z,20.15
2019-04-14T12:01:49.784Z,20.16
2019-04-14T12:04:24.251Z,20.13
2019-04-14T12:07:09.024Z,20.14
2019-04-14T12:09:37.576Z,20.16
2019-04-14T12:12:06.157Z,20.16
2019-04-14T12:14:33.066Z,20.19
2019-04-14T12:16:59.973Z,20.20
2019-04-14T12:19:26.909Z,20.18
2019-04-14T12:21:53.816Z,20.17
2019-04-14T12:24:20.715Z,20.19
2019-04-14T12:26:47.628Z,20.21
2019-04-14T12:29:14.537Z,20.22
2019-04-14T12:31:42.003Z,20.23
2019-04-14T12:34:09.028Z,20.25
2019-04-14T12:36:35.936Z,20.27
2019-04-14T12:39:03.444Z,20.27
2019-04-14T12:41:41.176Z,20.26
2019-04-14T12:44:25.072Z,20.26
2019-04-14T12:47:08.692Z,20.27
2019-04-14T12:49:46.486Z,20.27
2019-04-14T12:52:22.030Z,20.27
2019-04-14T12:54:49.108Z,20.28
2019-04-14T12:57:17.657Z,20.27
2019-04-14T12:59:44.592Z,20.26
2019-04-14T13:02:25.215Z,20.23
2019-04-14T13:04:55.196Z,20.26
2019-04-14T13:07:21.074Z,20.25
2019-04-14T13:09:47.944Z,20.25
2019-04-14T13:12:14.856Z,20.25
2019-04-14T13:14:41.769Z,20.23
2019-04-14T13:17:08.697Z,20.23
2019-04-14T13:19:35.607Z,20.24
2019-04-14T13:22:02.516Z,20.25
2019-04-14T13:24:29.437Z,20.25
2019-04-14T13:26:56.368Z,20.23
2019-04-14T13:29:23.267Z,20.23
2019-04-14T13:31:50.176Z,20.25
2019-04-14T13:34:17.079Z,20.23
2019-04-14T13:36:43.996Z,20.25
2019-04-14T13:39:12.718Z,20.27
2019-04-14T13:41:39.465Z,20.29
2019-04-14T13:44:06.396Z,20.31
2019-04-14T13:46:33.309Z,20.31
2019-04-14T13:49:00.208Z,20.31
2019-04-14T13:51:27.119Z,20.29
2019-04-14T13:53:54.033Z,20.31
2019-04-14T13:56:20.964Z,20.31
2019-04-14T13:58:47.864Z,20.33
2019-04-14T14:01:14.772Z,20.32
2019-04-14T14:03:41.702Z,20.34
2019-04-14T14:06:08.611Z,20.31
2019-04-14T14:08:35.541Z,20.33
2019-04-14T14:11:16.248Z,20.31
2019-04-14T14:13:47.994Z,20.31
2019-04-14T14:16:32.996Z,20.30
2019-04-14T14:19:01.569Z,20.29
2019-04-14T14:21:39.359Z,20.29
2019-04-14T14:24:24.168Z,20.27
2019-04-14T14:26:52.696Z,20.28
2019-04-14T14:29:19.609Z,20.26
2019-04-14T14:31:46.536Z,20.26
2019-04-14T14:34:13.445Z,20.25
2019-04-14T14:36:40.355Z,20.25
2019-04-14T14:39:07.536Z,20.24
2019-04-14T14:41:34.444Z,20.24
2019-04-14T14:44:01.619Z,20.23
2019-04-14T14:46:46.297Z,20.15
2019-04-14T14:49:33.098Z,20.06
2019-04-14T14:52:13.675Z,20.03
2019-04-14T14:54:40.637Z,20.09
2019-04-14T14:57:07.520Z,20.18
2019-04-14T14:59:34.627Z,19.55
2019-04-14T15:02:01.512Z,20.22
2019-04-14T15:04:28.587Z,20.22
2019-04-14T15:06:55.476Z,20.19
2019-04-14T15:09:22.424Z,20.21
2019-04-14T15:11:49.369Z,20.19
2019-04-14T15:14:16.384Z,20.23
2019-04-14T15:16:43.342Z,20.22
2019-04-14T15:19:10.248Z,20.21
2019-04-14T15:21:37.189Z,20.21
2019-04-14T15:24:04.223Z,20.21
2019-04-14T15:26:31.167Z,20.19
2019-04-14T15:28:58.069Z,20.19
2019-04-14T15:31:24.976Z,20.20
2019-04-14T15:33:51.888Z,20.20
2019-04-14T15:36:18.804Z,20.19
2019-04-14T15:38:45.748Z,20.19
2019-04-14T15:41:12.648Z,20.20
2019-04-14T15:43:39.576Z,19.10
2019-04-14T15:46:06.534Z,20.18
2019-04-14T15:48:33.449Z,20.17
2019-04-14T15:51:00.403Z,20.18
2019-04-14T15:53:37.228Z,20.17
2019-04-14T15:55:55.955Z,20.18
2019-04-14T15:58:39.544Z,20.17
2019-04-14T16:01:08.117Z,20.17
2019-04-14T16:03:39.404Z,20.16
2019-04-14T16:06:07.976Z,20.15
2019-04-14T16:08:45.776Z,20.14
2019-04-14T16:11:17.074Z,20.15
2019-04-14T16:13:45.647Z,20.12
2019-04-14T16:16:29.484Z,20.13
2019-04-14T16:19:09.826Z,20.12
2019-04-14T16:21:36.753Z,20.13
2019-04-14T16:24:03.695Z,20.13
2019-04-14T16:26:35.319Z,20.12
2019-04-14T16:29:09.916Z,20.11
2019-04-14T16:31:44.473Z,20.11
2019-04-14T16:34:15.987Z,20.10
2019-04-14T16:36:44.544Z,20.11
2019-04-14T16:39:11.454Z,20.11
2019-04-14T16:41:38.362Z,20.10
2019-04-14T16:44:05.276Z,20.11
2019-04-14T16:46:32.216Z,20.12
2019-04-14T16:48:59.136Z,20.12
2019-04-14T16:51:39.758Z,20.10
2019-04-14T16:54:26.437Z,20.10
2019-04-14T16:57:00.703Z,20.10
2019-04-14T16:59:27.628Z,20.10
2019-04-14T17:01:54.552Z,20.10
2019-04-14T17:04:21.465Z,20.10
2019-04-14T17:06:48.454Z,20.10
2019-04-14T17:09:15.382Z,20.11
2019-04-14T17:11:42.292Z,20.11
2019-04-14T17:14:10.862Z,20.09
2019-04-14T17:16:42.359Z,20.11
2019-04-14T17:19:27.279Z,20.10
2019-04-14T17:21:55.869Z,20.12
2019-04-14T17:24:33.433Z,20.11
2019-04-14T17:27:01.984Z,20.10
2019-04-14T17:29:30.518Z,20.10
2019-04-14T17:31:59.102Z,20.11
2019-04-14T17:34:33.814Z,20.10
2019-04-14T17:37:14.559Z,20.11
2019-04-14T17:39:46.048Z,20.10
2019-04-14T17:42:23.935Z,20.09
2019-04-14T17:44:52.483Z,20.09
2019-04-14T17:47:33.101Z,20.08
2019-04-14T17:50:07.407Z,20.09
2019-04-14T17:52:35.977Z,20.08
2019-04-14T17:55:19.918Z,20.09
2019-04-14T17:58:04.921Z,20.09
2019-04-14T18:00:42.695Z,20.09
2019-04-14T18:03:11.277Z,20.03
2019-04-14T18:05:39.835Z,19.09
2019-04-14T18:08:11.191Z,18.57
2019-04-14T18:10:55.002Z,18.79
2019-04-14T18:13:23.603Z,19.17
2019-04-14T18:16:04.134Z,19.39
2019-04-14T18:18:49.141Z,19.54
2019-04-14T18:21:16.057Z,19.64
2019-04-14T18:23:42.954Z,19.71
2019-04-14T18:26:10.150Z,19.75
2019-04-14T18:28:44.730Z,19.76
2019-04-14T18:31:19.016Z,19.79
2019-04-14T18:33:50.472Z,19.84
2019-04-14T18:36:35.548Z,19.86
2019-04-14T18:39:07.028Z,19.86
2019-04-14T18:41:44.460Z,19.85
2019-04-14T18:44:18.701Z,19.85
2019-04-14T18:46:56.085Z,19.84
2019-04-14T18:49:40.919Z,19.84
2019-04-14T18:52:27.644Z,19.84
2019-04-14T18:54:56.232Z,19.14
2019-04-14T18:57:33.567Z,19.83
2019-04-14T19:00:04.917Z,19.84
2019-04-14T19:02:31.871Z,19.84
2019-04-14T19:04:58.735Z,19.84
2019-04-14T19:07:25.638Z,19.84
2019-04-14T19:09:52.562Z,19.84
2019-04-14T19:12:21.143Z,19.85
2019-04-14T19:14:49.674Z,19.84
2019-04-14T19:17:21.231Z,19.85
2019-04-14T19:20:01.397Z,19.85
2019-04-14T19:22:21.038Z,19.85
2019-04-14T19:24:47.954Z,19.85
2019-04-14T19:27:14.865Z,19.84
2019-04-14T19:29:41.791Z,19.84
2019-04-14T19:32:08.695Z,19.83
2019-04-14T19:34:35.644Z,19.87
2019-04-14T19:37:02.536Z,19.78
2019-04-14T19:39:29.453Z,19.74
2019-04-14T19:41:56.370Z,19.72
2019-04-14T19:44:23.269Z,19.70
2019-04-14T19:46:50.228Z,19.70
2019-04-14T19:49:17.136Z,19.70
2019-04-14T19:51:44.044Z,19.72
2019-04-14T19:54:11.073Z,19.79
2019-04-14T19:56:37.999Z,19.84
2019-04-14T19:59:04.930Z,19.86
2019-04-14T20:01:31.881Z,19.87
2019-04-14T20:03:58.815Z,19.86
2019-04-14T20:06:25.841Z,19.86
2019-04-14T20:08:52.752Z,19.86
2019-04-14T20:11:19.707Z,19.86
2019-04-14T20:13:47.111Z,19.85
2019-04-14T20:16:27.627Z,19.85
2019-04-14T20:19:10.287Z,19.86
2019-04-14T20:21:44.388Z,19.87
2019-04-14T20:24:18.965Z,19.87
2019-04-14T20:27:01.602Z,19.86
2019-04-14T20:29:30.187Z,19.86
2019-04-14T20:32:01.525Z,19.86
2019-04-14T20:34:28.511Z,19.86
2019-04-14T20:36:55.493Z,19.87
2019-04-14T20:39:24.093Z,19.87
2019-04-14T20:41:51.000Z,19.87
2019-04-14T20:44:18.077Z,19.87
2019-04-14T20:46:45.007Z,19.87
2019-04-14T20:49:11.997Z,19.87
2019-04-14T20:51:38.953Z,19.87
2019-04-14T20:54:05.936Z,19.87
2019-04-14T20:56:32.893Z,19.88
2019-04-14T20:58:59.834Z,19.87
2019-04-14T21:01:28.359Z,19.87
2019-04-14T21:04:13.452Z,19.87
2019-04-14T21:06:44.788Z,19.87
2019-04-14T21:09:22.052Z,19.87
2019-04-14T21:11:56.754Z,19.87
2019-04-14T21:14:25.369Z,19.88
2019-04-14T21:17:06.305Z,19.87
2019-04-14T21:19:34.911Z,19.87
2019-04-14T21:22:03.501Z,19.87
2019-04-14T21:24:41.049Z,19.87
2019-04-14T21:27:09.642Z,19.87
2019-04-14T21:29:38.282Z,19.88
2019-04-14T21:32:06.882Z,19.87
2019-04-14T21:34:38.555Z,19.87
2019-04-14T21:37:07.144Z,19.87
2019-04-14T21:39:41.710Z,19.87
2019-04-14T21:42:08.642Z,19.87
2019-04-14T21:44:35.635Z,19.87
2019-04-14T21:47:02.603Z,19.88
2019-04-14T21:49:29.511Z,19.88
2019-04-14T21:51:58.051Z,19.88
2019-04-14T21:54:24.970Z,19.88
2019-04-14T21:56:53.543Z,19.87
2019-04-14T21:59:28.322Z,19.88
2019-04-14T22:02:13.409Z,19.88
2019-04-14T22:04:53.933Z,19.88
2019-04-14T22:07:25.419Z,19.88
2019-04-14T22:09:53.986Z,19.88
2019-04-14T22:12:20.954Z,19.87
2019-04-14T22:14:47.868Z,19.87
2019-04-14T22:17:14.866Z,19.88
2019-04-14T22:19:41.779Z,19.87
2019-04-14T22:22:08.704Z,19.87
2019-04-14T22:24:35.641Z,19.87
2019-04-14T22:27:02.552Z,19.88
2019-04-14T22:29:29.504Z,19.87
2019-04-14T22:31:56.415Z,19.88
2019-04-14T22:34:23.339Z,19.87
2019-04-14T22:36:50.318Z,19.88
2019-04-14T22:39:17.816Z,19.87
2019-04-14T22:41:44.736Z,19.87
2019-04-14T22:44:11.651Z,19.87
2019-04-14T22:46:38.560Z,19.88
2019-04-14T22:49:05.508Z,19.87
2019-04-14T22:51:32.432Z,19.88
2019-04-14T22:53:59.336Z,19.88
2019-04-14T22:56:38.296Z,19.87
2019-04-14T22:58:54.909Z,19.87
2019-04-14T23:01:23.522Z,19.87
2019-04-14T23:03:52.080Z,19.87
2019-04-14T23:06:23.603Z,19.87
2019-04-14T23:09:04.168Z,19.88
2019-04-14T23:11:48.932Z,19.87
2019-04-14T23:14:20.442Z,19.87
2019-04-14T23:17:05.468Z,19.87
2019-04-14T23:19:52.346Z,19.87
2019-04-14T23:22:20.966Z,19.87
2019-04-14T23:24:51.505Z,19.87
2019-04-14T23:27:18.481Z,19.87
2019-04-14T23:29:45.480Z,19.86
2019-04-14T23:32:12.446Z,19.86
2019-04-14T23:34:39.368Z,19.87
2019-04-14T23:37:06.345Z,19.86
2019-04-14T23:39:33.378Z,19.86
2019-04-14T23:42:00.299Z,19.87
2019-04-14T23:44:27.333Z,19.86
2019-04-14T23:46:54.329Z,19.87
2019-04-14T23:49:21.269Z,19.87
2019-04-14T23:51:48.347Z,19.86
2019-04-14T23:54:15.306Z,19.86
2019-04-14T23:56:42.258Z,19.86
2019-04-14T23:59:09.209Z,19.86
